Enter the Airport ICAO Code

Search by Airport or City

Current Weather

GCLP | Gran Canaria Airport

Gran Canaria, Canary Islands, Spain

Last Update 17 Minutes Ago

Partly Cloudy Sky

Temperature of 27 ºC

Strong Winds from NorthEast

Temperature

27 ºC

Dew Point Temperature

18 ºC

Relative Humidity

58.07 %

Wind Direction

NorthEast (030º, Without Significant Variations)

Wind Velocity

44 km/h (24 kt)

Gusts

None

Visibility

Greater than 10 Kilometers

Sea Level Pressure

1017 hPa (Hectopascals)

Layers of Clouds

5% to 30% of Sky Covered from 914 mts (3000 ft) Above Ground Level.

30% to 60% of Sky Covered from 1219 mts (4000 ft) Above Ground Level.

METAR GCLP 211330Z 03024KT 9999 FEW030 SCT040 27/18 Q1017 NOSIG

Weather Forecast

GCLP | Gran Canaria Airport

Gran Canaria, Canary Islands, Spain

Forecast valid for the next 19 Hours

From now on it is expected:

Sky with Few Clouds

Moderate to Strong Winds from North

From now on it is expected 5 hours with intermittent periods of:

Moderate to Strong Winds from North with Gusts

Maximum Temperature

29 ºC in 0 Hours

Minimum Temperature

22 ºC in 16 Hours

TAF GCLP 210800Z 2109/2209 02020KT 9999 FEW030 TX29/2114Z TN22/2206Z PROB30 TEMPO 2112/2119 02018G28KT